sensor_id;sensor_type;location;lat;lon;timestamp;temperature;humidity
9808;DHT22;4943;52.550;13.462;2023-05-20T00:01:57;14.20;95.80
9808;DHT22;4943;52.550;13.462;2023-05-20T00:04:25;14.20;96.00
9808;DHT22;4943;52.550;13.462;2023-05-20T00:06:54;14.20;96.10
9808;DHT22;4943;52.550;13.462;2023-05-20T00:09:22;14.10;96.40
9808;DHT22;4943;52.550;13.462;2023-05-20T00:11:51;14.10;96.20
9808;DHT22;4943;52.550;13.462;2023-05-20T00:14:19;14.10;96.20
9808;DHT22;4943;52.550;13.462;2023-05-20T00:16:47;14.10;96.30
9808;DHT22;4943;52.550;13.462;2023-05-20T00:19:15;14.10;96.40
9808;DHT22;4943;52.550;13.462;2023-05-20T00:21:43;14.10;96.20
9808;DHT22;4943;52.550;13.462;2023-05-20T00:24:11;14.10;96.30
9808;DHT22;4943;52.550;13.462;2023-05-20T00:26:39;14.10;96.40
9808;DHT22;4943;52.550;13.462;2023-05-20T00:29:09;14.00;96.50
9808;DHT22;4943;52.550;13.462;2023-05-20T00:31:37;14.00;96.50
9808;DHT22;4943;52.550;13.462;2023-05-20T00:34:05;14.00;96.60
9808;DHT22;4943;52.550;13.462;2023-05-20T00:36:34;14.00;96.80
9808;DHT22;4943;52.550;13.462;2023-05-20T00:39:02;13.90;96.80
9808;DHT22;4943;52.550;13.462;2023-05-20T00:41:31;13.90;97.00
9808;DHT22;4943;52.550;13.462;2023-05-20T00:43:59;13.90;97.00
9808;DHT22;4943;52.550;13.462;2023-05-20T00:46:28;13.90;96.90
9808;DHT22;4943;52.550;13.462;2023-05-20T00:48:56;13.80;97.10
9808;DHT22;4943;52.550;13.462;2023-05-20T00:51:25;13.80;97.10
9808;DHT22;4943;52.550;13.462;2023-05-20T00:53:53;13.80;97.30
9808;DHT22;4943;52.550;13.462;2023-05-20T00:56:22;13.80;97.40
9808;DHT22;4943;52.550;13.462;2023-05-20T00:58:50;13.70;97.60
9808;DHT22;4943;52.550;13.462;2023-05-20T01:01:18;13.70;97.60
9808;DHT22;4943;52.550;13.462;2023-05-20T01:03:47;13.70;97.70
9808;DHT22;4943;52.550;13.462;2023-05-20T01:06:15;13.70;97.80
9808;DHT22;4943;52.550;13.462;2023-05-20T01:08:43;13.70;97.90
9808;DHT22;4943;52.550;13.462;2023-05-20T01:11:17;13.60;97.90
9808;DHT22;4943;52.550;13.462;2023-05-20T01:13:54;13.60;98.00
9808;DHT22;4943;52.550;13.462;2023-05-20T01:16:23;13.60;98.00
9808;DHT22;4943;52.550;13.462;2023-05-20T01:18:55;13.60;98.30
9808;DHT22;4943;52.550;13.462;2023-05-20T01:21:24;13.60;98.20
9808;DHT22;4943;52.550;13.462;2023-05-20T01:23:55;13.50;98.20
9808;DHT22;4943;52.550;13.462;2023-05-20T01:26:23;13.50;98.20
9808;DHT22;4943;52.550;13.462;2023-05-20T01:28:53;13.50;98.30
9808;DHT22;4943;52.550;13.462;2023-05-20T01:31:25;13.50;98.30
9808;DHT22;4943;52.550;13.462;2023-05-20T01:33:56;13.50;98.30
9808;DHT22;4943;52.550;13.462;2023-05-20T01:36:25;13.50;98.50
9808;DHT22;4943;52.550;13.462;2023-05-20T01:38:55;13.40;98.60
9808;DHT22;4943;52.550;13.462;2023-05-20T01:41:25;13.40;98.70
9808;DHT22;4943;52.550;13.462;2023-05-20T01:43:54;13.40;98.80
9808;DHT22;4943;52.550;13.462;2023-05-20T01:46:22;13.40;98.90
9808;DHT22;4943;52.550;13.462;2023-05-20T01:48:51;13.40;98.90
9808;DHT22;4943;52.550;13.462;2023-05-20T01:51:19;13.40;98.80
9808;DHT22;4943;52.550;13.462;2023-05-20T01:53:47;13.40;98.80
9808;DHT22;4943;52.550;13.462;2023-05-20T01:56:16;13.40;98.80
9808;DHT22;4943;52.550;13.462;2023-05-20T01:58:46;13.40;98.90
9808;DHT22;4943;52.550;13.462;2023-05-20T02:01:14;13.40;98.80
9808;DHT22;4943;52.550;13.462;2023-05-20T02:03:42;13.40;98.70
9808;DHT22;4943;52.550;13.462;2023-05-20T02:06:10;13.40;99.00
9808;DHT22;4943;52.550;13.462;2023-05-20T02:08:38;13.40;98.70
9808;DHT22;4943;52.550;13.462;2023-05-20T02:11:06;13.40;99.20
9808;DHT22;4943;52.550;13.462;2023-05-20T02:13:38;13.40;99.00
9808;DHT22;4943;52.550;13.462;2023-05-20T02:16:06;13.40;99.10
9808;DHT22;4943;52.550;13.462;2023-05-20T02:18:34;13.30;99.00
9808;DHT22;4943;52.550;13.462;2023-05-20T02:21:03;13.30;99.00
9808;DHT22;4943;52.550;13.462;2023-05-20T02:23:31;13.30;99.00
9808;DHT22;4943;52.550;13.462;2023-05-20T02:25:59;13.30;99.10
9808;DHT22;4943;52.550;13.462;2023-05-20T02:28:27;13.30;99.00
9808;DHT22;4943;52.550;13.462;2023-05-20T02:30:57;13.30;98.90
9808;DHT22;4943;52.550;13.462;2023-05-20T02:33:25;13.30;99.00
9808;DHT22;4943;52.550;13.462;2023-05-20T02:35:54;13.30;99.10
9808;DHT22;4943;52.550;13.462;2023-05-20T02:38:23;13.30;99.10
9808;DHT22;4943;52.550;13.462;2023-05-20T02:40:52;13.30;99.10
9808;DHT22;4943;52.550;13.462;2023-05-20T02:43:20;13.20;99.40
9808;DHT22;4943;52.550;13.462;2023-05-20T02:45:48;13.20;99.40
9808;DHT22;4943;52.550;13.462;2023-05-20T02:48:17;13.10;99.30
9808;DHT22;4943;52.550;13.462;2023-05-20T02:50:45;13.20;99.40
9808;DHT22;4943;52.550;13.462;2023-05-20T02:53:14;13.20;99.50
9808;DHT22;4943;52.550;13.462;2023-05-20T02:55:42;13.10;99.50
9808;DHT22;4943;52.550;13.462;2023-05-20T02:58:10;13.10;99.40
9808;DHT22;4943;52.550;13.462;2023-05-20T03:00:39;13.10;99.30
9808;DHT22;4943;52.550;13.462;2023-05-20T03:03:07;13.10;99.40
9808;DHT22;4943;52.550;13.462;2023-05-20T03:05:38;13.10;99.40
9808;DHT22;4943;52.550;13.462;2023-05-20T03:08:09;13.10;99.30
9808;DHT22;4943;52.550;13.462;2023-05-20T03:10:37;13.10;99.70
9808;DHT22;4943;52.550;13.462;2023-05-20T03:13:06;13.10;99.30
9808;DHT22;4943;52.550;13.462;2023-05-20T03:15:37;13.10;99.40
9808;DHT22;4943;52.550;13.462;2023-05-20T03:18:05;13.10;99.40
9808;DHT22;4943;52.550;13.462;2023-05-20T03:20:34;13.00;99.50
9808;DHT22;4943;52.550;13.462;2023-05-20T03:23:05;13.00;99.50
9808;DHT22;4943;52.550;13.462;2023-05-20T03:25:34;13.00;99.60
9808;DHT22;4943;52.550;13.462;2023-05-20T03:28:02;13.10;99.70
9808;DHT22;4943;52.550;13.462;2023-05-20T03:30:30;13.10;99.70
9808;DHT22;4943;52.550;13.462;2023-05-20T03:32:58;13.10;99.80
9808;DHT22;4943;52.550;13.462;2023-05-20T03:35:28;13.20;99.80
9808;DHT22;4943;52.550;13.462;2023-05-20T03:37:56;13.20;99.80
9808;DHT22;4943;52.550;13.462;2023-05-20T03:40:28;13.20;99.90
9808;DHT22;4943;52.550;13.462;2023-05-20T03:42:56;13.20;99.90
9808;DHT22;4943;52.550;13.462;2023-05-20T03:45:24;13.20;99.90
9808;DHT22;4943;52.550;13.462;2023-05-20T03:47:52;13.30;99.90
9808;DHT22;4943;52.550;13.462;2023-05-20T03:50:21;13.30;99.90
9808;DHT22;4943;52.550;13.462;2023-05-20T03:52:49;13.30;99.90
9808;DHT22;4943;52.550;13.462;2023-05-20T03:55:17;13.40;99.90
9808;DHT22;4943;52.550;13.462;2023-05-20T03:57:47;13.40;99.90
9808;DHT22;4943;52.550;13.462;2023-05-20T04:00:16;13.40;99.90
9808;DHT22;4943;52.550;13.462;2023-05-20T04:02:44;13.50;99.90
9808;DHT22;4943;52.550;13.462;2023-05-20T04:05:12;13.50;99.90
9808;DHT22;4943;52.550;13.462;2023-05-20T04:07:40;13.50;99.90
9808;DHT22;4943;52.550;13.462;2023-05-20T04:10:09;13.50;99.90
9808;DHT22;4943;52.550;13.462;2023-05-20T04:12:37;13.50;99.90
9808;DHT22;4943;52.550;13.462;2023-05-20T04:15:08;13.50;99.90
9808;DHT22;4943;52.550;13.462;2023-05-20T04:17:36;13.50;99.90
9808;DHT22;4943;52.550;13.462;2023-05-20T04:20:07;13.60;99.90
9808;DHT22;4943;52.550;13.462;2023-05-20T04:22:37;13.60;99.90
9808;DHT22;4943;52.550;13.462;2023-05-20T04:25:06;13.60;99.90
9808;DHT22;4943;52.550;13.462;2023-05-20T04:27:34;13.50;99.90
9808;DHT22;4943;52.550;13.462;2023-05-20T04:30:04;13.60;99.90
9808;DHT22;4943;52.550;13.462;2023-05-20T04:32:33;13.50;99.90
9808;DHT22;4943;52.550;13.462;2023-05-20T04:35:01;13.50;99.90
9808;DHT22;4943;52.550;13.462;2023-05-20T04:37:33;13.50;99.90
9808;DHT22;4943;52.550;13.462;2023-05-20T04:40:04;13.60;99.90
9808;DHT22;4943;52.550;13.462;2023-05-20T04:42:32;13.60;99.90
9808;DHT22;4943;52.550;13.462;2023-05-20T04:45:01;13.60;99.90
9808;DHT22;4943;52.550;13.462;2023-05-20T04:47:32;13.60;99.90
9808;DHT22;4943;52.550;13.462;2023-05-20T04:50:05;13.50;99.90
9808;DHT22;4943;52.550;13.462;2023-05-20T04:52:34;13.50;99.90
9808;DHT22;4943;52.550;13.462;2023-05-20T04:55:03;13.50;99.90
9808;DHT22;4943;52.550;13.462;2023-05-20T04:57:31;13.60;99.90
9808;DHT22;4943;52.550;13.462;2023-05-20T05:00:01;13.60;99.90
9808;DHT22;4943;52.550;13.462;2023-05-20T05:02:34;13.60;99.90
9808;DHT22;4943;52.550;13.462;2023-05-20T05:05:03;13.60;99.90
9808;DHT22;4943;52.550;13.462;2023-05-20T05:07:32;13.60;99.90
9808;DHT22;4943;52.550;13.462;2023-05-20T05:10:00;13.60;99.90
9808;DHT22;4943;52.550;13.462;2023-05-20T05:12:28;13.70;99.90
9808;DHT22;4943;52.550;13.462;2023-05-20T05:14:56;13.60;99.90
9808;DHT22;4943;52.550;13.462;2023-05-20T05:17:24;13.60;99.90
9808;DHT22;4943;52.550;13.462;2023-05-20T05:19:55;13.70;99.90
9808;DHT22;4943;52.550;13.462;2023-05-20T05:22:23;13.70;99.90
9808;DHT22;4943;52.550;13.462;2023-05-20T05:24:51;13.80;99.90
9808;DHT22;4943;52.550;13.462;2023-05-20T05:27:21;13.90;99.90
9808;DHT22;4943;52.550;13.462;2023-05-20T05:29:49;13.90;99.90
9808;DHT22;4943;52.550;13.462;2023-05-20T05:32:17;13.90;99.90
9808;DHT22;4943;52.550;13.462;2023-05-20T05:34:45;13.90;99.90
9808;DHT22;4943;52.550;13.462;2023-05-20T05:37:15;13.90;99.90
9808;DHT22;4943;52.550;13.462;2023-05-20T05:39:43;13.90;99.90
9808;DHT22;4943;52.550;13.462;2023-05-20T05:42:11;13.90;99.90
9808;DHT22;4943;52.550;13.462;2023-05-20T05:44:39;13.90;99.90
9808;DHT22;4943;52.550;13.462;2023-05-20T05:47:09;13.80;99.90
9808;DHT22;4943;52.550;13.462;2023-05-20T05:49:37;13.80;99.90
9808;DHT22;4943;52.550;13.462;2023-05-20T05:52:05;13.70;99.90
9808;DHT22;4943;52.550;13.462;2023-05-20T05:54:35;13.80;99.90
9808;DHT22;4943;52.550;13.462;2023-05-20T05:57:03;13.80;99.90
9808;DHT22;4943;52.550;13.462;2023-05-20T05:59:32;13.80;99.90
9808;DHT22;4943;52.550;13.462;2023-05-20T06:02:00;13.70;99.90
9808;DHT22;4943;52.550;13.462;2023-05-20T06:04:28;13.80;99.90
9808;DHT22;4943;52.550;13.462;2023-05-20T06:06:57;13.80;99.90
9808;DHT22;4943;52.550;13.462;2023-05-20T06:09:25;13.90;99.90
9808;DHT22;4943;52.550;13.462;2023-05-20T06:11:54;14.00;99.90
9808;DHT22;4943;52.550;13.462;2023-05-20T06:14:22;14.10;99.90
9808;DHT22;4943;52.550;13.462;2023-05-20T06:16:50;14.10;99.90
9808;DHT22;4943;52.550;13.462;2023-05-20T06:19:18;14.20;99.90
9808;DHT22;4943;52.550;13.462;2023-05-20T06:21:46;14.20;99.90
9808;DHT22;4943;52.550;13.462;2023-05-20T06:24:14;14.30;99.90
9808;DHT22;4943;52.550;13.462;2023-05-20T06:26:42;14.40;99.90
9808;DHT22;4943;52.550;13.462;2023-05-20T06:29:13;14.40;99.90
9808;DHT22;4943;52.550;13.462;2023-05-20T06:31:41;14.40;99.90
9808;DHT22;4943;52.550;13.462;2023-05-20T06:34:09;14.40;99.90
9808;DHT22;4943;52.550;13.462;2023-05-20T06:36:37;14.40;99.90
9808;DHT22;4943;52.550;13.462;2023-05-20T06:39:05;14.40;99.90
9808;DHT22;4943;52.550;13.462;2023-05-20T06:41:38;14.40;99.90
9808;DHT22;4943;52.550;13.462;2023-05-20T06:44:06;14.40;99.90
9808;DHT22;4943;52.550;13.462;2023-05-20T06:46:36;14.50;99.90
9808;DHT22;4943;52.550;13.462;2023-05-20T06:49:04;14.50;99.90
9808;DHT22;4943;52.550;13.462;2023-05-20T06:51:32;14.50;99.90
9808;DHT22;4943;52.550;13.462;2023-05-20T06:54:00;14.50;99.90
9808;DHT22;4943;52.550;13.462;2023-05-20T06:56:28;14.60;99.90
9808;DHT22;4943;52.550;13.462;2023-05-20T06:58:56;14.60;99.90
9808;DHT22;4943;52.550;13.462;2023-05-20T07:01:24;14.60;99.90
9808;DHT22;4943;52.550;13.462;2023-05-20T07:03:53;14.60;99.90
9808;DHT22;4943;52.550;13.462;2023-05-20T07:06:22;14.70;99.90
9808;DHT22;4943;52.550;13.462;2023-05-20T07:08:50;14.80;99.90
9808;DHT22;4943;52.550;13.462;2023-05-20T07:11:18;14.90;99.90
9808;DHT22;4943;52.550;13.462;2023-05-20T07:13:47;15.10;99.90
9808;DHT22;4943;52.550;13.462;2023-05-20T07:16:15;15.10;99.90
9808;DHT22;4943;52.550;13.462;2023-05-20T07:18:45;15.10;99.90
9808;DHT22;4943;52.550;13.462;2023-05-20T07:21:14;15.10;99.90
9808;DHT22;4943;52.550;13.462;2023-05-20T07:23:42;15.30;99.90
9808;DHT22;4943;52.550;13.462;2023-05-20T07:26:10;15.30;99.90
9808;DHT22;4943;52.550;13.462;2023-05-20T07:28:38;15.40;99.90
9808;DHT22;4943;52.550;13.462;2023-05-20T07:31:06;15.30;99.90
9808;DHT22;4943;52.550;13.462;2023-05-20T07:33:34;15.30;99.90
9808;DHT22;4943;52.550;13.462;2023-05-20T07:36:03;15.30;99.90
9808;DHT22;4943;52.550;13.462;2023-05-20T07:38:32;15.40;99.90
9808;DHT22;4943;52.550;13.462;2023-05-20T07:41:00;15.40;99.90
9808;DHT22;4943;52.550;13.462;2023-05-20T07:43:28;15.40;99.90
9808;DHT22;4943;52.550;13.462;2023-05-20T07:45:56;15.40;99.90
9808;DHT22;4943;52.550;13.462;2023-05-20T07:48:24;15.40;99.90
9808;DHT22;4943;52.550;13.462;2023-05-20T07:50:52;15.50;99.90
9808;DHT22;4943;52.550;13.462;2023-05-20T07:53:22;15.60;99.90
9808;DHT22;4943;52.550;13.462;2023-05-20T07:55:52;15.70;99.90
9808;DHT22;4943;52.550;13.462;2023-05-20T07:58:20;15.70;99.90
9808;DHT22;4943;52.550;13.462;2023-05-20T08:00:48;15.80;99.90
9808;DHT22;4943;52.550;13.462;2023-05-20T08:03:16;15.90;99.90
9808;DHT22;4943;52.550;13.462;2023-05-20T08:05:45;16.10;99.90
9808;DHT22;4943;52.550;13.462;2023-05-20T08:08:13;16.10;99.90
9808;DHT22;4943;52.550;13.462;2023-05-20T08:10:41;16.20;99.90
9808;DHT22;4943;52.550;13.462;2023-05-20T08:13:11;16.30;99.90
9808;DHT22;4943;52.550;13.462;2023-05-20T08:15:39;16.50;99.90
9808;DHT22;4943;52.550;13.462;2023-05-20T08:18:07;16.50;99.90
9808;DHT22;4943;52.550;13.462;2023-05-20T08:20:35;16.70;99.90
9808;DHT22;4943;52.550;13.462;2023-05-20T08:23:03;16.80;99.90
9808;DHT22;4943;52.550;13.462;2023-05-20T08:25:31;16.90;99.90
9808;DHT22;4943;52.550;13.462;2023-05-20T08:28:00;17.00;99.90
9808;DHT22;4943;52.550;13.462;2023-05-20T08:30:32;17.00;99.90
9808;DHT22;4943;52.550;13.462;2023-05-20T08:33:00;16.90;99.90
9808;DHT22;4943;52.550;13.462;2023-05-20T08:35:28;16.90;99.90
9808;DHT22;4943;52.550;13.462;2023-05-20T08:37:57;16.90;99.90
9808;DHT22;4943;52.550;13.462;2023-05-20T08:40:26;17.10;99.90
9808;DHT22;4943;52.550;13.462;2023-05-20T08:42:54;17.20;99.90
9808;DHT22;4943;52.550;13.462;2023-05-20T08:45:24;17.40;99.90
9808;DHT22;4943;52.550;13.462;2023-05-20T08:47:56;17.50;99.90
9808;DHT22;4943;52.550;13.462;2023-05-20T08:50:25;17.60;99.90
9808;DHT22;4943;52.550;13.462;2023-05-20T08:52:53;17.70;99.90
9808;DHT22;4943;52.550;13.462;2023-05-20T08:55:24;17.70;99.90
9808;DHT22;4943;52.550;13.462;2023-05-20T08:57:54;17.70;99.90
9808;DHT22;4943;52.550;13.462;2023-05-20T09:00:23;17.70;99.90
9808;DHT22;4943;52.550;13.462;2023-05-20T09:02:55;17.70;99.90
9808;DHT22;4943;52.550;13.462;2023-05-20T09:05:27;17.80;99.90
9808;DHT22;4943;52.550;13.462;2023-05-20T09:08:04;17.70;99.90
9808;DHT22;4943;52.550;13.462;2023-05-20T09:10:33;17.70;99.90
9808;DHT22;4943;52.550;13.462;2023-05-20T09:13:02;17.60;99.90
9808;DHT22;4943;52.550;13.462;2023-05-20T09:15:31;17.60;99.90
9808;DHT22;4943;52.550;13.462;2023-05-20T09:18:02;17.60;99.90
9808;DHT22;4943;52.550;13.462;2023-05-20T09:20:32;17.60;99.90
9808;DHT22;4943;52.550;13.462;2023-05-20T09:23:01;17.60;99.90
9808;DHT22;4943;52.550;13.462;2023-05-20T09:25:29;17.70;99.90
9808;DHT22;4943;52.550;13.462;2023-05-20T09:27:58;17.80;99.90
9808;DHT22;4943;52.550;13.462;2023-05-20T09:30:26;17.80;99.90
9808;DHT22;4943;52.550;13.462;2023-05-20T09:32:55;17.90;99.90
9808;DHT22;4943;52.550;13.462;2023-05-20T09:35:26;18.00;99.90
9808;DHT22;4943;52.550;13.462;2023-05-20T09:37:55;18.10;99.90
9808;DHT22;4943;52.550;13.462;2023-05-20T09:40:24;18.10;99.90
9808;DHT22;4943;52.550;13.462;2023-05-20T09:42:55;18.00;99.90
9808;DHT22;4943;52.550;13.462;2023-05-20T09:45:24;18.10;99.90
9808;DHT22;4943;52.550;13.462;2023-05-20T09:47:53;18.20;99.90
9808;DHT22;4943;52.550;13.462;2023-05-20T09:50:24;18.20;99.90
9808;DHT22;4943;52.550;13.462;2023-05-20T09:52:53;18.20;99.60
9808;DHT22;4943;52.550;13.462;2023-05-20T09:55:23;18.10;99.70
9808;DHT22;4943;52.550;13.462;2023-05-20T09:57:52;18.10;99.80
9808;DHT22;4943;52.550;13.462;2023-05-20T10:00:21;18.00;99.80
9808;DHT22;4943;52.550;13.462;2023-05-20T10:02:50;18.00;99.70
9808;DHT22;4943;52.550;13.462;2023-05-20T10:05:20;18.00;99.70
9808;DHT22;4943;52.550;13.462;2023-05-20T10:08:07;18.00;99.90
9808;DHT22;4943;52.550;13.462;2023-05-20T10:10:44;18.00;99.90
9808;DHT22;4943;52.550;13.462;2023-05-20T10:13:37;18.10;99.90
9808;DHT22;4943;52.550;13.462;2023-05-20T10:16:18;18.20;99.90
9808;DHT22;4943;52.550;13.462;2023-05-20T10:18:55;18.30;99.80
9808;DHT22;4943;52.550;13.462;2023-05-20T10:21:25;18.30;99.80
9808;DHT22;4943;52.550;13.462;2023-05-20T10:24:05;18.40;99.80
9808;DHT22;4943;52.550;13.462;2023-05-20T10:26:36;18.30;99.70
9808;DHT22;4943;52.550;13.462;2023-05-20T10:29:14;18.20;99.80
9808;DHT22;4943;52.550;13.462;2023-05-20T10:31:48;18.20;99.90
9808;DHT22;4943;52.550;13.462;2023-05-20T10:34:18;18.20;99.90
9808;DHT22;4943;52.550;13.462;2023-05-20T10:36:56;18.30;99.90
9808;DHT22;4943;52.550;13.462;2023-05-20T10:39:27;18.40;99.90
9808;DHT22;4943;52.550;13.462;2023-05-20T10:42:06;18.60;99.80
9808;DHT22;4943;52.550;13.462;2023-05-20T10:44:41;18.60;99.70
9808;DHT22;4943;52.550;13.462;2023-05-20T10:47:10;18.70;99.80
9808;DHT22;4943;52.550;13.462;2023-05-20T10:49:44;18.90;99.70
9808;DHT22;4943;52.550;13.462;2023-05-20T10:52:15;19.00;99.60
9808;DHT22;4943;52.550;13.462;2023-05-20T10:54:45;19.10;99.40
9808;DHT22;4943;52.550;13.462;2023-05-20T10:57:17;19.20;99.30
9808;DHT22;4943;52.550;13.462;2023-05-20T10:59:46;19.30;98.70
9808;DHT22;4943;52.550;13.462;2023-05-20T11:02:15;19.30;98.30
9808;DHT22;4943;52.550;13.462;2023-05-20T11:04:43;19.20;98.50
9808;DHT22;4943;52.550;13.462;2023-05-20T11:07:12;19.20;98.60
9808;DHT22;4943;52.550;13.462;2023-05-20T11:09:48;19.20;98.60
9808;DHT22;4943;52.550;13.462;2023-05-20T11:12:16;19.20;98.80
9808;DHT22;4943;52.550;13.462;2023-05-20T11:14:47;19.30;98.80
9808;DHT22;4943;52.550;13.462;2023-05-20T11:17:15;19.40;98.90
9808;DHT22;4943;52.550;13.462;2023-05-20T11:19:45;19.50;98.60
9808;DHT22;4943;52.550;13.462;2023-05-20T11:22:13;19.60;98.70
9808;DHT22;4943;52.550;13.462;2023-05-20T11:24:41;19.80;98.90
9808;DHT22;4943;52.550;13.462;2023-05-20T11:27:11;20.10;98.60
9808;DHT22;4943;52.550;13.462;2023-05-20T11:29:39;20.30;98.40
9808;DHT22;4943;52.550;13.462;2023-05-20T11:32:07;20.50;98.20
9808;DHT22;4943;52.550;13.462;2023-05-20T11:34:36;20.70;97.80
9808;DHT22;4943;52.550;13.462;2023-05-20T11:37:06;20.70;97.60
9808;DHT22;4943;52.550;13.462;2023-05-20T11:39:35;20.70;97.30
9808;DHT22;4943;52.550;13.462;2023-05-20T11:42:04;20.60;97.30
9808;DHT22;4943;52.550;13.462;2023-05-20T11:44:34;20.50;97.20
9808;DHT22;4943;52.550;13.462;2023-05-20T11:47:02;20.40;97.30
9808;DHT22;4943;52.550;13.462;2023-05-20T11:49:38;20.30;97.50
9808;DHT22;4943;52.550;13.462;2023-05-20T11:52:08;20.30;98.00
9808;DHT22;4943;52.550;13.462;2023-05-20T11:54:37;20.40;97.60
9808;DHT22;4943;52.550;13.462;2023-05-20T11:57:05;20.40;97.60
9808;DHT22;4943;52.550;13.462;2023-05-20T11:59:35;20.50;97.50
9808;DHT22;4943;52.550;13.462;2023-05-20T12:02:03;20.50;97.30
9808;DHT22;4943;52.550;13.462;2023-05-20T12:04:31;20.40;97.00
9808;DHT22;4943;52.550;13.462;2023-05-20T12:06:59;20.30;97.00
9808;DHT22;4943;52.550;13.462;2023-05-20T12:09:29;20.20;97.40
9808;DHT22;4943;52.550;13.462;2023-05-20T12:11:57;20.30;97.60
9808;DHT22;4943;52.550;13.462;2023-05-20T12:14:25;20.40;97.60
9808;DHT22;4943;52.550;13.462;2023-05-20T12:16:55;20.50;97.50
9808;DHT22;4943;52.550;13.462;2023-05-20T12:19:23;20.60;97.30
9808;DHT22;4943;52.550;13.462;2023-05-20T12:21:51;20.60;97.00
9808;DHT22;4943;52.550;13.462;2023-05-20T12:24:19;20.50;97.10
9808;DHT22;4943;52.550;13.462;2023-05-20T12:26:47;20.40;97.30
9808;DHT22;4943;52.550;13.462;2023-05-20T12:29:15;20.40;97.40
9808;DHT22;4943;52.550;13.462;2023-05-20T12:31:43;20.40;97.40
9808;DHT22;4943;52.550;13.462;2023-05-20T12:34:13;20.50;97.50
9808;DHT22;4943;52.550;13.462;2023-05-20T12:36:41;20.50;97.30
9808;DHT22;4943;52.550;13.462;2023-05-20T12:39:09;20.50;97.30
9808;DHT22;4943;52.550;13.462;2023-05-20T12:41:38;20.40;97.40
9808;DHT22;4943;52.550;13.462;2023-05-20T12:44:06;20.40;97.50
9808;DHT22;4943;52.550;13.462;2023-05-20T12:46:34;20.50;97.60
9808;DHT22;4943;52.550;13.462;2023-05-20T12:49:03;20.50;97.30
9808;DHT22;4943;52.550;13.462;2023-05-20T12:51:32;20.50;97.10
9808;DHT22;4943;52.550;13.462;2023-05-20T12:54:00;20.40;97.50
9808;DHT22;4943;52.550;13.462;2023-05-20T12:56:28;20.30;97.20
9808;DHT22;4943;52.550;13.462;2023-05-20T12:58:56;20.20;97.20
9808;DHT22;4943;52.550;13.462;2023-05-20T13:01:25;20.10;97.40
9808;DHT22;4943;52.550;13.462;2023-05-20T13:03:53;20.10;97.70
9808;DHT22;4943;52.550;13.462;2023-05-20T13:06:21;20.00;97.60
9808;DHT22;4943;52.550;13.462;2023-05-20T13:08:50;20.00;97.80
9808;DHT22;4943;52.550;13.462;2023-05-20T13:11:18;20.00;97.60
9808;DHT22;4943;52.550;13.462;2023-05-20T13:13:47;20.00;97.70
9808;DHT22;4943;52.550;13.462;2023-05-20T13:16:15;19.90;97.80
9808;DHT22;4943;52.550;13.462;2023-05-20T13:18:43;19.90;97.90
9808;DHT22;4943;52.550;13.462;2023-05-20T13:21:12;19.90;97.90
9808;DHT22;4943;52.550;13.462;2023-05-20T13:23:40;19.80;97.90
9808;DHT22;4943;52.550;13.462;2023-05-20T13:26:10;19.80;98.00
9808;DHT22;4943;52.550;13.462;2023-05-20T13:28:38;19.70;98.20
9808;DHT22;4943;52.550;13.462;2023-05-20T13:31:06;19.80;98.30
9808;DHT22;4943;52.550;13.462;2023-05-20T13:33:34;19.80;98.30
9808;DHT22;4943;52.550;13.462;2023-05-20T13:36:03;19.90;98.20
9808;DHT22;4943;52.550;13.462;2023-05-20T13:38:31;19.90;98.20
9808;DHT22;4943;52.550;13.462;2023-05-20T13:41:02;19.90;98.00
9808;DHT22;4943;52.550;13.462;2023-05-20T13:43:31;19.90;98.10
9808;DHT22;4943;52.550;13.462;2023-05-20T13:45:59;19.90;98.10
9808;DHT22;4943;52.550;13.462;2023-05-20T13:48:28;20.00;98.20
9808;DHT22;4943;52.550;13.462;2023-05-20T13:50:56;20.10;98.30
9808;DHT22;4943;52.550;13.462;2023-05-20T13:53:24;20.10;98.30
9808;DHT22;4943;52.550;13.462;2023-05-20T13:55:52;20.30;98.30
9808;DHT22;4943;52.550;13.462;2023-05-20T13:58:20;20.40;98.20
9808;DHT22;4943;52.550;13.462;2023-05-20T14:00:50;20.50;98.00
9808;DHT22;4943;52.550;13.462;2023-05-20T14:03:18;20.50;98.00
9808;DHT22;4943;52.550;13.462;2023-05-20T14:05:46;20.50;98.00
9808;DHT22;4943;52.550;13.462;2023-05-20T14:08:14;20.50;97.80
9808;DHT22;4943;52.550;13.462;2023-05-20T14:10:42;20.50;97.90
9808;DHT22;4943;52.550;13.462;2023-05-20T14:13:10;20.60;98.00
9808;DHT22;4943;52.550;13.462;2023-05-20T14:15:38;20.70;97.90
9808;DHT22;4943;52.550;13.462;2023-05-20T14:18:07;20.80;97.60
9808;DHT22;4943;52.550;13.462;2023-05-20T14:20:36;20.80;97.70
9808;DHT22;4943;52.550;13.462;2023-05-20T14:23:04;20.70;97.60
9808;DHT22;4943;52.550;13.462;2023-05-20T14:25:32;20.70;97.50
9808;DHT22;4943;52.550;13.462;2023-05-20T14:28:00;20.60;97.50
9808;DHT22;4943;52.550;13.462;2023-05-20T14:30:28;20.60;97.80
9808;DHT22;4943;52.550;13.462;2023-05-20T14:32:56;20.70;97.80
9808;DHT22;4943;52.550;13.462;2023-05-20T14:35:26;20.80;97.50
9808;DHT22;4943;52.550;13.462;2023-05-20T14:37:54;20.80;97.60
9808;DHT22;4943;52.550;13.462;2023-05-20T14:40:22;20.70;97.60
9808;DHT22;4943;52.550;13.462;2023-05-20T14:42:50;20.70;97.80
9808;DHT22;4943;52.550;13.462;2023-05-20T14:45:18;20.80;98.00
9808;DHT22;4943;52.550;13.462;2023-05-20T14:47:46;20.90;98.20
9808;DHT22;4943;52.550;13.462;2023-05-20T14:50:14;21.00;98.20
9808;DHT22;4943;52.550;13.462;2023-05-20T14:52:44;21.10;97.60
9808;DHT22;4943;52.550;13.462;2023-05-20T14:55:12;21.10;97.60
9808;DHT22;4943;52.550;13.462;2023-05-20T14:57:40;21.20;97.50
9808;DHT22;4943;52.550;13.462;2023-05-20T15:00:09;21.20;97.60
9808;DHT22;4943;52.550;13.462;2023-05-20T15:02:38;21.30;97.60
9808;DHT22;4943;52.550;13.462;2023-05-20T15:05:06;21.50;98.00
9808;DHT22;4943;52.550;13.462;2023-05-20T15:07:37;21.80;97.80
9808;DHT22;4943;52.550;13.462;2023-05-20T15:10:07;22.00;97.10
9808;DHT22;4943;52.550;13.462;2023-05-20T15:12:35;22.10;97.20
9808;DHT22;4943;52.550;13.462;2023-05-20T15:15:04;22.20;96.90
9808;DHT22;4943;52.550;13.462;2023-05-20T15:17:32;22.30;97.00
9808;DHT22;4943;52.550;13.462;2023-05-20T15:20:01;22.40;96.60
9808;DHT22;4943;52.550;13.462;2023-05-20T15:22:29;22.40;96.50
9808;DHT22;4943;52.550;13.462;2023-05-20T15:24:57;22.50;96.50
9808;DHT22;4943;52.550;13.462;2023-05-20T15:27:27;22.60;96.60
9808;DHT22;4943;52.550;13.462;2023-05-20T15:29:55;22.70;96.70
9808;DHT22;4943;52.550;13.462;2023-05-20T15:32:23;22.80;96.30
9808;DHT22;4943;52.550;13.462;2023-05-20T15:34:51;22.80;96.00
9808;DHT22;4943;52.550;13.462;2023-05-20T15:37:19;22.80;95.80
9808;DHT22;4943;52.550;13.462;2023-05-20T15:39:47;22.80;95.80
9808;DHT22;4943;52.550;13.462;2023-05-20T15:42:15;22.70;95.90
9808;DHT22;4943;52.550;13.462;2023-05-20T15:44:45;22.70;95.90
9808;DHT22;4943;52.550;13.462;2023-05-20T15:47:13;22.80;96.10
9808;DHT22;4943;52.550;13.462;2023-05-20T15:49:41;23.00;96.00
9808;DHT22;4943;52.550;13.462;2023-05-20T15:52:09;23.00;95.70
9808;DHT22;4943;52.550;13.462;2023-05-20T15:54:37;23.10;95.80
9808;DHT22;4943;52.550;13.462;2023-05-20T15:57:05;23.20;95.70